Briefing drone pour La roche-sur-foron

Rechercher une autre localisation

Conditions de vol :


Nous sommes le : Mercredi 14 avril 2021
Il est 01:29 UTC (03:29 LT)

Lever de soleil : 04:23 UTC (06:23 LT)
Coucher de soleil : 18:46 UTC (20:46 LT)

Météo

L'essentiel des conditions de vol

VIGILANCE MÉTÉO FRANCE - Haute-Savoie (74)
Vigilance Jaune : Avalanches
CARTE TEMSI
CARTES DES FRONTS
METAR de LFLP
LFLP 140100Z AUTO 03004KT 350V050 CAVOK 01/M02 Q1024

Date d'émission: 14/04/2021
Heure d'émission: 01:00 UTC
Vent: 030° (variable du 350° au 050°) pour 4 KT (7 km/h)
Visibilité horizontale: > 10 km
Plafond : Plafond et visibilité OK (CAVOK)
Température: 1 °C
Point de rosée: -2 °C
Humidité: 80%
Pression (QNH): 1024 hPa
TAF de LFLP
AMD LFLP 131905Z 1319/1415 CNL

Conditions prévues :

Heure d'émission : Bulletin éffectué le 13 à 19:00 UTC
Prévision : Valide du 13 a 19:00 UTC au 14 a 15:00 UTC
Nuages : à 0ft (0 m)
WEBCAM POUR LA ROCHE-SUR-FORON

Réglementation

Voler en sécurité

CARTES AERONAUTIQUE 1/500.000
CARTES VAC (LFLP)
SUP AIP




Chargement des AIP...
NOTAM (LA ROCHE-SUR-FORON + Terrain à proximité / FIR )




Chargement des NOTAMS...
CONTACT PREFECTURE 74


Avertissement : Les données mises à disposition sont indicatives. Oxygène Drone ne pourra être tenu responsable de dégâts causés aux biens et aux personnes.